YYB weather

North Bay Jack Garland Airport
North Bay, Ontario, Canada

Public forecast

Using degrees Celsius for public forecast. Weather courtesy of forecast.io.

Current aviation weather report (METAR) for North Bay Jack Garland Airport

Retrieved 2019/10/19 21:00 UTC (35 minutes ago):

CYYB 192100Z 24004KT 30SM SCT190 BKN280 10/M01 A2994 RMK AC3CI3 SLP152

Aviation forecast (TAF) for North Bay Jack Garland Airport

Retrieved 2019/10/19 20:42 UTC (53 minutes ago):

TAF TAF CYYB 191938Z 1920/2008 18008G18KT P6SM SKC FM200000 12008KT P6SM SCT180 PROB30 2006/2008 2SM BR RMK NXT FCST BY 200200Z